createdAt,value
2017-11-05T00:01:23.731Z,7.20
2017-11-05T00:03:51.248Z,7.43
2017-11-05T00:06:18.755Z,7.45
2017-11-05T00:08:47.063Z,7.22
2017-11-05T00:11:14.612Z,7.25
2017-11-05T00:13:42.180Z,7.50
2017-11-05T00:16:09.678Z,6.90
2017-11-05T00:18:37.183Z,7.30
2017-11-05T00:21:04.709Z,7.78
2017-11-05T00:23:32.247Z,7.37
2017-11-05T00:25:59.759Z,7.70
2017-11-05T00:28:28.052Z,7.25
2017-11-05T00:30:55.570Z,6.47
2017-11-05T00:33:23.072Z,6.55
2017-11-05T00:35:51.398Z,7.57
2017-11-05T00:38:18.960Z,7.80
2017-11-05T00:40:46.470Z,6.60
2017-11-05T00:43:13.991Z,6.57
2017-11-05T00:45:42.265Z,5.78
2017-11-05T00:48:09.786Z,6.60
2017-11-05T00:50:37.289Z,6.55
2017-11-05T00:53:04.798Z,6.85
2017-11-05T00:55:32.298Z,7.10
2017-11-05T00:57:59.811Z,6.70
2017-11-05T01:00:27.323Z,6.65
2017-11-05T01:02:54.857Z,6.43
2017-11-05T01:05:22.355Z,5.97
2017-11-05T01:07:50.623Z,6.68
2017-11-05T01:10:18.904Z,6.85
2017-11-05T01:12:47.170Z,5.90
2017-11-05T01:15:14.678Z,6.40
2017-11-05T01:17:42.175Z,6.85
2017-11-05T01:20:09.693Z,6.57
2017-11-05T01:22:37.194Z,6.70
2017-11-05T01:25:04.742Z,6.60
2017-11-05T01:27:32.241Z,6.30
2017-11-05T01:30:00.506Z,6.35
2017-11-05T01:32:28.794Z,5.95
2017-11-05T01:34:57.063Z,6.50
2017-11-05T01:37:25.347Z,7.15
2017-11-05T01:39:53.611Z,6.00
2017-11-05T01:42:21.902Z,6.70
2017-11-05T01:44:49.418Z,6.95
2017-11-05T01:47:16.967Z,6.37
2017-11-05T01:49:44.483Z,7.35
2017-11-05T01:52:12.012Z,6.60
2017-11-05T01:54:39.524Z,6.55
2017-11-05T01:57:07.019Z,6.25
2017-11-05T01:59:34.536Z,6.53
2017-11-05T02:02:02.042Z,6.20
2017-11-05T02:04:29.558Z,6.82
2017-11-05T02:06:57.059Z,6.90
2017-11-05T02:09:24.591Z,6.22
2017-11-05T02:11:52.107Z,6.90
2017-11-05T02:14:19.607Z,6.25
2017-11-05T02:16:47.126Z,6.85
2017-11-05T02:19:15.395Z,6.12
2017-11-05T02:21:43.676Z,6.18
2017-11-05T02:24:11.952Z,5.78
2017-11-05T02:26:40.808Z,5.85
2017-11-05T02:29:08.308Z,6.28
2017-11-05T02:31:36.599Z,5.87
2017-11-05T02:34:04.107Z,6.32
2017-11-05T02:36:31.635Z,6.80
2017-11-05T02:38:59.130Z,6.20
2017-11-05T02:41:26.644Z,6.00
2017-11-05T02:43:54.172Z,5.85
2017-11-05T02:46:22.446Z,5.95
2017-11-05T02:48:49.963Z,5.95
2017-11-05T02:51:17.467Z,6.20
2017-11-05T02:53:45.747Z,5.57
2017-11-05T02:56:14.016Z,5.62
2017-11-05T02:58:42.332Z,6.25
2017-11-05T03:01:09.825Z,6.15
2017-11-05T03:03:37.343Z,5.90
2017-11-05T03:06:05.696Z,5.40
2017-11-05T03:08:33.964Z,5.82
2017-11-05T03:11:02.248Z,5.90
2017-11-05T03:13:30.518Z,6.47
2017-11-05T03:15:58.034Z,6.82
2017-11-05T03:18:25.535Z,5.60
2017-11-05T03:20:53.096Z,5.80
2017-11-05T03:23:21.367Z,5.90
2017-11-05T03:25:48.857Z,5.75
2017-11-05T03:28:16.374Z,6.18
2017-11-05T03:30:43.872Z,5.80
2017-11-05T03:33:11.402Z,5.78
2017-11-05T03:35:38.894Z,6.78
2017-11-05T03:38:06.431Z,5.90
2017-11-05T03:40:34.694Z,6.00
2017-11-05T03:43:02.200Z,5.97
2017-11-05T03:45:29.718Z,7.90
2017-11-05T03:47:57.218Z,5.82
2017-11-05T03:50:25.503Z,6.68
2017-11-05T03:52:53.014Z,6.95
2017-11-05T03:55:21.309Z,6.15
2017-11-05T03:57:48.810Z,5.37
2017-11-05T04:00:16.306Z,6.93
2017-11-05T04:02:43.827Z,7.15
2017-11-05T04:05:11.323Z,6.82
2017-11-05T04:07:39.636Z,6.80
2017-11-05T04:12:42.082Z,6.15
2017-11-05T04:15:09.575Z,6.10
2017-11-05T04:17:37.094Z,6.32
2017-11-05T04:20:04.587Z,6.80
2017-11-05T04:22:32.866Z,6.32
2017-11-05T04:25:00.363Z,6.82
2017-11-05T04:27:27.875Z,6.25
2017-11-05T04:29:56.145Z,5.80
2017-11-05T04:32:24.479Z,5.87
2017-11-05T04:34:51.978Z,6.30
2017-11-05T04:37:19.479Z,5.80
2017-11-05T04:39:46.982Z,5.65
2017-11-05T04:42:14.475Z,5.72
2017-11-05T04:44:41.999Z,5.55
2017-11-05T04:47:10.320Z,5.95
2017-11-05T04:49:37.834Z,6.43
2017-11-05T04:52:05.340Z,5.82
2017-11-05T04:54:32.894Z,6.53
2017-11-05T04:57:00.387Z,6.32
2017-11-05T04:59:27.879Z,5.80
2017-11-05T05:01:55.399Z,6.10
2017-11-05T05:04:22.891Z,6.82
2017-11-05T05:06:50.416Z,6.57
2017-11-05T05:09:17.911Z,6.20
2017-11-05T05:11:45.435Z,6.15
2017-11-05T05:14:12.931Z,6.32
2017-11-05T05:16:40.803Z,6.45
2017-11-05T05:19:08.304Z,6.15
2017-11-05T05:21:35.806Z,6.10
2017-11-05T05:24:03.318Z,5.80
2017-11-05T05:26:30.832Z,6.30
2017-11-05T05:28:58.348Z,6.07
2017-11-05T05:31:25.838Z,6.28
2017-11-05T05:33:53.367Z,6.28
2017-11-05T05:36:20.887Z,5.15
2017-11-05T05:38:49.211Z,6.22
2017-11-05T05:41:16.711Z,6.78
2017-11-05T05:43:44.209Z,7.30
2017-11-05T05:46:11.756Z,6.57
2017-11-05T05:48:39.263Z,6.37
2017-11-05T05:51:06.771Z,6.30
2017-11-05T05:53:34.277Z,6.25
2017-11-05T05:56:01.791Z,6.68
2017-11-05T05:58:29.296Z,5.62
2017-11-05T06:00:56.807Z,6.32
2017-11-05T06:03:24.302Z,6.30
2017-11-05T06:05:51.815Z,5.80
2017-11-05T06:08:20.082Z,6.10
2017-11-05T06:10:48.385Z,6.22
2017-11-05T06:13:15.891Z,6.20
2017-11-05T06:15:43.385Z,6.00
2017-11-05T06:18:11.678Z,6.62
2017-11-05T06:20:39.175Z,5.68
2017-11-05T06:23:06.689Z,5.90
2017-11-05T06:25:34.195Z,8.65
2017-11-05T06:28:01.712Z,9.07
2017-11-05T06:30:29.210Z,8.57
2017-11-05T06:32:56.719Z,8.43
2017-11-05T06:35:24.226Z,6.90
2017-11-05T06:37:51.756Z,7.65
2017-11-05T06:40:19.268Z,7.65
2017-11-05T06:42:46.774Z,6.87
2017-11-05T06:45:14.278Z,7.75
2017-11-05T06:47:41.795Z,7.05
2017-11-05T06:50:09.310Z,6.87
2017-11-05T06:52:36.802Z,6.45
2017-11-05T06:55:04.330Z,6.93
2017-11-05T06:57:31.827Z,6.47
2017-11-05T06:59:59.339Z,6.57
2017-11-05T07:02:26.840Z,6.40
2017-11-05T07:04:54.370Z,6.97
2017-11-05T07:07:22.644Z,6.60
2017-11-05T07:09:50.907Z,6.05
2017-11-05T07:12:18.427Z,6.80
2017-11-05T07:14:45.930Z,7.57
2017-11-05T07:17:13.464Z,6.15
2017-11-05T07:19:40.964Z,6.65
2017-11-05T07:22:08.508Z,6.95
2017-11-05T07:24:36.006Z,7.30
2017-11-05T07:27:03.524Z,6.68
2017-11-05T07:29:31.018Z,6.97
2017-11-05T07:31:58.571Z,7.85
2017-11-05T07:34:26.253Z,6.97
2017-11-05T07:36:53.756Z,7.65
2017-11-05T07:39:21.272Z,8.82
2017-11-05T07:41:48.774Z,7.68
2017-11-05T07:44:16.295Z,9.10
2017-11-05T07:46:43.798Z,8.48
2017-11-05T07:49:11.324Z,8.93
2017-11-05T07:51:38.843Z,9.20
2017-11-05T07:54:06.356Z,9.23
2017-11-05T07:56:33.860Z,8.65
2017-11-05T07:59:02.166Z,8.45
2017-11-05T08:01:29.668Z,9.90
2017-11-05T08:03:57.169Z,10.63
2017-11-05T08:06:24.681Z,8.65
2017-11-05T08:08:52.178Z,8.05
2017-11-05T08:11:19.698Z,9.68
2017-11-05T08:13:47.209Z,11.95
2017-11-05T08:16:14.741Z,9.80
2017-11-05T08:18:43.007Z,9.35
2017-11-05T08:21:11.296Z,10.75
2017-11-05T08:23:38.795Z,9.82
2017-11-05T08:26:07.078Z,11.43
2017-11-05T08:28:34.594Z,12.40
2017-11-05T08:31:02.138Z,11.80
2017-11-05T08:33:29.640Z,12.80
2017-11-05T08:35:57.147Z,14.57
2017-11-05T08:38:24.672Z,16.83
2017-11-05T08:40:52.179Z,18.00
2017-11-05T08:43:20.471Z,17.65
2017-11-05T08:45:48.748Z,18.87
2017-11-05T08:48:17.031Z,18.70
2017-11-05T08:50:44.531Z,19.05
2017-11-05T08:53:12.051Z,18.77
2017-11-05T08:55:39.567Z,18.27
2017-11-05T08:58:07.087Z,19.10
2017-11-05T09:00:34.594Z,17.62
2017-11-05T09:03:02.132Z,16.90
2017-11-05T09:05:29.643Z,18.25
2017-11-05T09:07:57.199Z,17.05
2017-11-05T09:10:25.470Z,18.35
2017-11-05T09:12:53.746Z,18.35
2017-11-05T09:15:22.038Z,17.77
2017-11-05T09:17:49.551Z,17.00
2017-11-05T09:20:17.116Z,16.80
2017-11-05T09:22:44.634Z,16.90
2017-11-05T09:25:12.171Z,16.92
2017-11-05T09:27:39.687Z,18.58
2017-11-05T09:30:07.215Z,20.15
2017-11-05T09:32:34.729Z,18.05
2017-11-05T09:35:03.026Z,19.00
2017-11-05T09:37:30.539Z,19.35
2017-11-05T09:39:58.091Z,19.70
2017-11-05T09:42:25.607Z,19.27
2017-11-05T09:44:53.116Z,20.45
2017-11-05T09:47:20.643Z,18.90
2017-11-05T09:49:48.165Z,18.30
2017-11-05T09:52:16.458Z,18.65
2017-11-05T09:54:43.968Z,19.17
2017-11-05T09:57:12.005Z,18.48
2017-11-05T09:59:39.693Z,19.30
2017-11-05T10:02:07.244Z,19.30
2017-11-05T10:04:34.763Z,20.20
2017-11-05T10:07:03.031Z,19.45
2017-11-05T10:09:31.323Z,19.48
2017-11-05T10:11:58.822Z,17.50
2017-11-05T10:14:26.359Z,19.30
2017-11-05T10:16:53.871Z,17.58
2017-11-05T10:19:21.394Z,17.20
2017-11-05T10:21:48.931Z,17.42
2017-11-05T10:24:16.456Z,18.42
2017-11-05T10:26:44.729Z,17.80
2017-11-05T10:29:12.258Z,17.50
2017-11-05T10:31:39.778Z,18.33
2017-11-05T10:34:07.307Z,17.58
2017-11-05T10:36:35.658Z,18.87
2017-11-05T10:39:03.190Z,17.35
2017-11-05T10:41:30.735Z,19.02
2017-11-05T10:43:58.314Z,20.40
2017-11-05T10:46:27.038Z,17.40
2017-11-05T10:48:54.854Z,19.15
2017-11-05T10:51:23.008Z,19.15
2017-11-05T10:53:51.394Z,18.90
2017-11-05T10:56:19.716Z,18.60
2017-11-05T10:58:47.224Z,18.15
2017-11-05T11:01:15.555Z,18.62
2017-11-05T11:03:43.060Z,18.25
2017-11-05T11:06:11.378Z,17.00
2017-11-05T11:08:38.914Z,18.87
2017-11-05T11:11:06.436Z,16.23
2017-11-05T11:13:33.955Z,16.65
2017-11-05T11:16:01.472Z,17.27
2017-11-05T11:18:29.002Z,15.45
2017-11-05T11:20:56.514Z,16.27
2017-11-05T11:23:24.056Z,16.52
2017-11-05T11:25:52.332Z,14.98
2017-11-05T11:28:19.930Z,14.32
2017-11-05T11:30:47.450Z,14.85
2017-11-05T11:33:15.729Z,14.43
2017-11-05T11:35:44.026Z,15.05
2017-11-05T11:38:11.536Z,12.95
2017-11-05T11:40:39.082Z,13.60
2017-11-05T11:43:06.599Z,13.82
2017-11-05T11:45:34.129Z,12.02
2017-11-05T11:48:01.643Z,12.35
2017-11-05T11:50:29.171Z,12.35
2017-11-05T11:52:57.449Z,11.38
2017-11-05T11:55:25.007Z,11.65
2017-11-05T11:57:52.533Z,11.10
2017-11-05T12:00:20.050Z,11.05
2017-11-05T12:02:47.576Z,11.80
2017-11-05T12:05:15.851Z,10.40
2017-11-05T12:07:44.141Z,12.35
2017-11-05T12:10:11.665Z,12.77
2017-11-05T12:12:39.191Z,11.77
2017-11-05T12:15:06.703Z,12.63
2017-11-05T12:17:34.991Z,11.57
2017-11-05T12:20:03.478Z,12.00
2017-11-05T12:22:31.787Z,11.55
2017-11-05T12:25:00.063Z,12.85
2017-11-05T12:27:27.584Z,12.00
2017-11-05T12:29:55.872Z,10.82
2017-11-05T12:32:23.776Z,11.00
2017-11-05T12:34:51.455Z,11.98
2017-11-05T12:37:19.027Z,10.77
2017-11-05T12:39:46.586Z,9.85
2017-11-05T12:42:14.110Z,11.27
2017-11-05T12:44:41.635Z,10.50
2017-11-05T12:47:09.906Z,10.55
2017-11-05T12:49:38.227Z,11.10
2017-11-05T12:52:05.726Z,10.30
2017-11-05T12:54:33.231Z,9.85
2017-11-05T12:57:00.754Z,10.50
2017-11-05T12:59:28.260Z,9.65
2017-11-05T13:01:55.787Z,9.50
2017-11-05T13:04:24.059Z,10.98
2017-11-05T13:06:52.338Z,9.48
2017-11-05T13:09:20.603Z,7.80
2017-11-05T13:11:48.891Z,7.47
2017-11-05T13:14:17.159Z,7.22
2017-11-05T13:16:45.463Z,6.47
2017-11-05T13:19:12.955Z,4.00
2017-11-05T13:21:40.522Z,4.18
2017-11-05T13:24:08.042Z,3.80
2017-11-05T13:26:35.535Z,4.85
2017-11-05T13:29:03.050Z,3.70
2017-11-05T13:31:31.330Z,4.35
2017-11-05T13:33:58.854Z,4.60
2017-11-05T13:36:26.356Z,4.53
2017-11-05T13:38:53.894Z,4.50
2017-11-05T13:41:22.167Z,4.55
2017-11-05T13:43:50.436Z,4.93
2017-11-05T13:46:17.951Z,3.62
2017-11-05T13:48:45.581Z,2.40
2017-11-05T13:51:13.099Z,2.58
2017-11-05T13:53:40.590Z,1.83
2017-11-05T13:56:08.880Z,1.50
2017-11-05T13:58:38.315Z,2.00
2017-11-05T14:01:05.913Z,1.90
2017-11-05T14:03:33.852Z,1.95
2017-11-05T14:06:01.421Z,1.80
2017-11-05T14:08:29.087Z,1.42
2017-11-05T14:10:56.613Z,0.88
2017-11-05T14:13:24.366Z,0.80
2017-11-05T14:15:51.995Z,0.70
2017-11-05T14:18:20.539Z,0.80
2017-11-05T14:20:48.107Z,1.00
2017-11-05T14:23:17.204Z,1.65
2017-11-05T14:25:44.762Z,0.90
2017-11-05T14:28:12.279Z,0.70
2017-11-05T14:30:42.776Z,0.80
2017-11-05T14:33:11.682Z,1.17
2017-11-05T14:35:40.029Z,0.77
2017-11-05T14:38:07.553Z,0.88
2017-11-05T14:40:35.087Z,0.90
2017-11-05T14:43:03.422Z,0.70
2017-11-05T14:45:30.935Z,0.88
2017-11-05T14:47:58.522Z,0.80
2017-11-05T14:50:26.039Z,0.80
2017-11-05T14:52:54.310Z,0.80
2017-11-05T14:55:22.611Z,0.70
2017-11-05T14:57:50.107Z,0.70
2017-11-05T15:00:17.642Z,0.68
2017-11-05T15:02:45.143Z,0.70
2017-11-05T15:05:12.646Z,1.00
2017-11-05T15:07:40.161Z,0.80
2017-11-05T15:10:07.678Z,0.70
2017-11-05T15:12:35.219Z,0.70
2017-11-05T15:15:02.853Z,0.90
2017-11-05T15:17:30.403Z,0.70
2017-11-05T15:19:57.897Z,0.82
2017-11-05T15:22:25.446Z,0.93
2017-11-05T15:24:52.986Z,0.75
2017-11-05T15:27:20.480Z,0.68
2017-11-05T15:29:47.994Z,0.60
2017-11-05T15:32:15.490Z,0.80
2017-11-05T15:34:43.770Z,0.75
2017-11-05T15:37:11.268Z,0.82
2017-11-05T15:39:38.791Z,0.93
2017-11-05T15:42:06.308Z,0.90
2017-11-05T15:44:33.842Z,0.80
2017-11-05T15:47:01.342Z,1.00
2017-11-05T15:49:29.698Z,0.90
2017-11-05T15:51:57.274Z,0.70
2017-11-05T15:54:24.875Z,0.60
2017-11-05T15:56:52.433Z,0.50
2017-11-05T15:59:19.934Z,0.93
2017-11-05T16:01:47.456Z,0.68
2017-11-05T16:04:14.960Z,0.90
2017-11-05T16:06:42.471Z,0.80
2017-11-05T16:09:09.970Z,0.80
2017-11-05T16:11:37.495Z,1.10
2017-11-05T16:14:04.987Z,0.98
2017-11-05T16:16:32.539Z,0.88
2017-11-05T16:19:00.041Z,1.10
2017-11-05T16:21:28.307Z,1.10
2017-11-05T16:23:55.827Z,1.27
2017-11-05T16:26:23.389Z,1.37
2017-11-05T16:28:50.962Z,1.30
2017-11-05T16:31:18.506Z,1.35
2017-11-05T16:33:46.030Z,1.33
2017-11-05T16:36:14.233Z,1.35
2017-11-05T16:38:41.759Z,1.35
2017-11-05T16:41:09.289Z,1.00
2017-11-05T16:43:36.881Z,0.90
2017-11-05T16:46:05.143Z,1.23
2017-11-05T16:48:33.472Z,1.10
2017-11-05T16:51:00.985Z,1.25
2017-11-05T16:53:29.246Z,1.17
2017-11-05T16:55:56.778Z,0.80
2017-11-05T16:58:24.283Z,0.88
2017-11-05T17:00:52.614Z,1.00
2017-11-05T17:03:20.162Z,0.95
2017-11-05T17:05:47.735Z,0.90
2017-11-05T17:08:15.236Z,1.17
2017-11-05T17:10:43.576Z,1.50
2017-11-05T17:13:11.079Z,1.27
2017-11-05T17:15:39.388Z,1.37
2017-11-05T17:18:06.890Z,2.00
2017-11-05T17:20:34.391Z,1.83
2017-11-05T17:23:01.918Z,1.40
2017-11-05T17:25:29.419Z,1.23
2017-11-05T17:27:57.003Z,1.20
2017-11-05T17:30:24.652Z,1.40
2017-11-05T17:32:52.170Z,1.48
2017-11-05T17:35:20.438Z,1.67
2017-11-05T17:37:48.718Z,1.35
2017-11-05T17:40:16.979Z,1.67
2017-11-05T17:42:44.499Z,1.85
2017-11-05T17:45:12.050Z,1.70
2017-11-05T17:47:39.570Z,1.40
2017-11-05T17:50:07.891Z,1.35
2017-11-05T17:52:35.431Z,1.40
2017-11-05T17:55:02.940Z,1.42
2017-11-05T17:57:30.488Z,1.40
2017-11-05T17:59:57.999Z,1.23
2017-11-05T18:02:25.566Z,1.67
2017-11-05T18:04:53.083Z,1.87
2017-11-05T18:07:20.634Z,1.45
2017-11-05T18:09:48.163Z,1.95
2017-11-05T18:12:15.718Z,1.62
2017-11-05T18:14:43.288Z,3.15
2017-11-05T18:17:10.846Z,1.70
2017-11-05T18:19:38.443Z,2.30
2017-11-05T18:22:05.933Z,2.00
2017-11-05T18:24:34.238Z,2.25
2017-11-05T18:27:01.812Z,1.83
2017-11-05T18:29:29.368Z,2.22
2017-11-05T18:31:56.878Z,2.22
2017-11-05T18:34:25.139Z,2.47
2017-11-05T18:36:52.659Z,2.62
2017-11-05T18:39:20.159Z,2.33
2017-11-05T18:41:47.679Z,2.62
2017-11-05T18:44:15.286Z,2.75
2017-11-05T18:46:42.844Z,2.55
2017-11-05T18:49:10.405Z,2.70
2017-11-05T18:51:37.903Z,2.80
2017-11-05T18:54:05.432Z,3.05
2017-11-05T18:56:33.742Z,3.47
2017-11-05T18:59:01.302Z,2.90
2017-11-05T19:01:28.845Z,3.12
2017-11-05T19:03:56.423Z,3.37
2017-11-05T19:06:23.966Z,3.17
2017-11-05T19:08:51.545Z,3.10
2017-11-05T19:11:19.047Z,3.40
2017-11-05T19:13:46.550Z,3.12
2017-11-05T19:16:14.062Z,4.35
2017-11-05T19:18:41.606Z,3.83
2017-11-05T19:21:09.170Z,4.30
2017-11-05T19:23:36.742Z,5.12
2017-11-05T19:26:04.272Z,5.65
2017-11-05T19:28:31.824Z,5.40
2017-11-05T19:31:00.144Z,5.93
2017-11-05T19:33:27.694Z,7.03
2017-11-05T19:35:55.187Z,5.90
2017-11-05T19:38:23.475Z,7.40
2017-11-05T19:40:51.030Z,9.52
2017-11-05T19:43:19.366Z,9.32
2017-11-05T19:45:46.874Z,10.68
2017-11-05T19:48:14.464Z,18.10
2017-11-05T19:50:41.967Z,12.27
2017-11-05T19:53:09.503Z,14.27
2017-11-05T19:55:37.071Z,15.57
2017-11-05T19:58:04.626Z,19.35
2017-11-05T20:00:32.147Z,17.87
2017-11-05T20:02:59.647Z,15.48
2017-11-05T20:05:27.220Z,12.45
2017-11-05T20:07:54.775Z,7.93
2017-11-05T20:10:22.394Z,7.93
2017-11-05T20:12:49.943Z,7.50
2017-11-05T20:15:17.530Z,6.78
2017-11-05T20:17:45.041Z,6.60
2017-11-05T20:20:13.375Z,7.97
2017-11-05T20:22:40.947Z,12.98
2017-11-05T20:25:08.498Z,37.53
2017-11-05T20:27:36.033Z,68.37
2017-11-05T20:30:03.547Z,56.72
2017-11-05T20:32:31.833Z,80.45
2017-11-05T20:35:00.158Z,81.10
2017-11-05T20:37:27.709Z,56.10
2017-11-05T20:39:55.303Z,43.42
2017-11-05T20:42:22.861Z,37.00
2017-11-05T20:44:50.421Z,22.15
2017-11-05T20:47:17.922Z,18.48
2017-11-05T20:49:45.498Z,15.82
2017-11-05T20:52:13.057Z,11.95
2017-11-05T20:54:40.625Z,11.88
2017-11-05T20:57:08.123Z,9.60
2017-11-05T20:59:35.692Z,10.75
2017-11-05T21:02:03.245Z,10.48
2017-11-05T21:04:30.847Z,10.18
2017-11-05T21:06:58.403Z,10.95
2017-11-05T21:09:25.902Z,9.80
2017-11-05T21:11:53.472Z,9.85
2017-11-05T21:14:20.967Z,10.30
2017-11-05T21:16:49.306Z,10.45
2017-11-05T21:19:16.858Z,10.30
2017-11-05T21:21:44.376Z,10.80
2017-11-05T21:24:11.874Z,10.73
2017-11-05T21:26:39.399Z,10.52
2017-11-05T21:29:06.945Z,10.23
2017-11-05T21:31:35.247Z,11.07
2017-11-05T21:34:02.800Z,11.20
2017-11-05T21:36:30.330Z,10.45
2017-11-05T21:38:58.615Z,11.10
2017-11-05T21:41:26.883Z,11.57
2017-11-05T21:43:54.399Z,11.57
2017-11-05T21:46:22.717Z,11.20
2017-11-05T21:48:50.258Z,11.43
2017-11-05T21:51:17.755Z,11.68
2017-11-05T21:53:46.095Z,11.63
2017-11-05T21:56:13.597Z,11.10
2017-11-05T21:58:41.163Z,11.90
2017-11-05T22:01:08.706Z,10.65
2017-11-05T22:03:36.977Z,11.52
2017-11-05T22:06:05.323Z,11.55
2017-11-05T22:08:32.843Z,11.52
2017-11-05T22:11:00.423Z,11.07
2017-11-05T22:13:27.926Z,11.07
2017-11-05T22:15:55.440Z,10.65
2017-11-05T22:18:22.997Z,10.70
2017-11-05T22:20:50.515Z,11.63
2017-11-05T22:23:18.007Z,9.52
2017-11-05T22:25:45.618Z,11.32
2017-11-05T22:28:13.128Z,11.68
2017-11-05T22:30:40.635Z,10.98
2017-11-05T22:33:08.154Z,10.50
2017-11-05T22:35:35.659Z,10.45
2017-11-05T22:38:03.203Z,11.25
2017-11-05T22:40:30.705Z,9.63
2017-11-05T22:42:58.270Z,11.57
2017-11-05T22:45:25.781Z,10.40
2017-11-05T22:47:53.302Z,9.85
2017-11-05T22:50:20.846Z,9.70
2017-11-05T22:52:48.411Z,10.35
2017-11-05T22:55:15.911Z,10.20
2017-11-05T22:57:43.411Z,10.60
2017-11-05T23:00:13.672Z,11.23
2017-11-05T23:02:41.171Z,11.18
2017-11-05T23:05:08.688Z,10.10
2017-11-05T23:07:36.188Z,9.90
2017-11-05T23:10:03.723Z,10.98
2017-11-05T23:12:31.221Z,8.93
2017-11-05T23:14:59.531Z,10.32
2017-11-05T23:17:27.036Z,10.43
2017-11-05T23:19:54.534Z,10.48
2017-11-05T23:22:22.051Z,10.45
2017-11-05T23:24:49.550Z,9.73
2017-11-05T23:27:17.070Z,9.35
2017-11-05T23:29:44.583Z,9.55
2017-11-05T23:32:12.103Z,11.35
2017-11-05T23:34:39.603Z,10.18
2017-11-05T23:37:07.139Z,10.13
2017-11-05T23:39:35.406Z,9.43
2017-11-05T23:42:03.688Z,11.07
2017-11-05T23:44:31.966Z,10.23
2017-11-05T23:47:00.234Z,11.48
2017-11-05T23:49:28.523Z,10.40
2017-11-05T23:51:56.786Z,9.75
2017-11-05T23:54:25.071Z,10.50
2017-11-05T23:56:53.335Z,10.70
2017-11-05T23:59:21.670Z,10.10
